Trout Lake, MI (49793)

2:27 PM EDT on August 03, 2015 (GMT -0400)
MesoWest | | Change Station
CLOSE
Current Station
Personal Weather Station
Location: Rudyard, MI
Elevation: 668 ft
Nearby Weather Stations

Elev 668 ft 46.19 °N, 84.56 °W | Updated 47 minutes ago

Overcast
Overcast
72 °F
Feels Like 74 °F
N
8
Wind Variable Wind from West
Gusts 12.0 mph

Today
High -- | Low -- °F
--% Chance of Precip.
Yesterday
High -- | Low -- °F
Precip. -- in
6:24 AM 9:07 PM
Waning Gibbous, 85% visible
Pressure 29.74 in
Visibility 10.0 miles
Clouds Scattered Clouds 3300 ft
Mostly Cloudy 4200 ft
Overcast 5000 ft
Heat Index 74 °F
Dew Point 63 °F
Humidity 72%
Rainfall in
Snow Depth Not available.
UV 3 out of 12
Pollen 5.40 out of 12
Air Quality Not available.
Flu Activity Not available.
METAR KERY 031814Z AUTO 29008G14KT 10SM SCT033 BKN042 OVC050 19/11 A2974 RMK AO2 T01860112

More Conditions Fewer Conditions

Pressure 29.74 in
Visibility 10.0 miles
Clouds Scattered Clouds 3300 ft
Mostly Cloudy 4200 ft
Overcast 5000 ft
Heat Index 74 °F
Dew Point 63 °F
Humidity 72%
Rainfall in
Snow Depth Not available.
UV 3 out of 12
Pollen 5.40 out of 12
Air Quality Not available.
Flu Activity Not available.
METAR KERY 031814Z AUTO 29008G14KT 10SM SCT033 BKN042 OVC050 19/11 A2974 RMK AO2 T01860112

More Conditions Fewer Conditions

Nowcast | as of 2:00 PM EDT on August 3, 2015

At 3 PM...mostly cloudy. Temperature 64. Northwest winds 13 mph. At 5 PM...mostly cloudy. Temperature 63. Northwest winds 14 mph. At 7 PM...mostly cloudy. Temperature 62. Northwest winds 12 mph. At 9 PM...partly cloudy. Temperature 59. Northwest winds 8 mph.

×

10-Day Weather Forecast

×

Almanac

Astronomy

Aug. 03, 2015 Rise Set
Actual Time
Civil Twilight
Nautical Twilight
Astronomical Twilight
Moon
Length of Visible Light
Length of Day
Tomorrow will be .
, % of the Moon is Illuminated

Today's Extremes

State Highs State Lows

Community

WunderPhotos

Upload Photos

1,843,697 photos uploaded!

WunderBlogs® & News

Nearby

Air Quality

  Air Quality AQ Index Pollutant
Not available.

Snow Depth

Station Depth Elevation

Earthquake Activity

City Distance Mag. Time & Date
Minimum magnitude displayed is 2.5.

Coastal Water Temperatures

Place Temperature

Stations

Nearby Weather Stations

Station Location Temp. Windchill Dew Point Humidity Wind Precip. Elev Updated Type